Terminal Aerodrome Forecast
Issued by NWS

Home | Current Version | Previous Version | Text Only | Print | Product List | Glossary On
Versions: 1 2 3 4 5 6 7 8 9 10 11 12 13 14 15 16 17 18 19 20 21 22 23 24
000
FTAK31 PAFA 051120
TAFAFA
TAF
PAFA 051120Z 0512/0618 01006KT P6SM SCT100 BKN200
     FM051900 VRB05KT P6SM SCT050 BKN100
     FM052200 33008KT P6SM VCSH BKN050 BKN100
     FM060300 VRB04KT P6SM FEW050 SCT100 BKN200
     FM061100 VRB04KT P6SM FEW100 FEW200=

USA.gov is the U.S. government's official web portal to all federal, state and local government web resources and services.